Thursday, September 1, 2016
01:54 UTC
  |  Log In   |  Register Free
Airport Search:

Jackson-Medgar Wiley Evers International Airport
(KJAN)

FAA data valid effective Jul 21 2016 - Sep 15 2016 (unless otherwise noted).

 
 
 
 
 
 
 
 
 
 
 
 
 
 
Current Aviation Weather for KJAN

Weather Summary


The most recent METAR observation for JAN was updated at: 13:03 UTC
METAR for JAN is not available. Closest METAR is for
METAR

METAR KJAN 010054Z 00000KT 10SM CLR 27/23 A2986 RMK AO2 SLP107 T02720228

METAR KJAN 312354Z 07005KT 10SM CLR 31/21 A2985 RMK AO2 SLP101 T03110211 10350 20311 56010

METAR KJAN 312254Z 04008KT 10SM FEW055 33/21 A2985 RMK AO2 SLP103 T03330206

METAR KHKS 010053Z 00000KT 10SM CLR 31/21 A2987 RMK AO2 SLP105 T03060211

METAR KJVW 010135Z 00000KT 10SM CLR A2988 RMK AO2

METAR KMBO 010135Z 00000KT 10SM CLR 26/22 A2988 RMK AO2 PWINO

TAF for JAN is not available.
TAF

KJAN - TAF KJAN 312335Z 0100/0124 02004KT P6SM FEW050 FEW250

KJAN - FM011130 02004KT 6SM BR FEW050 FEW250

KJAN - FM011300 02007KT P6SM FEW050 FEW250

KJAN - FM012100 36010G19KT P6SM SCT050 SCT250 =

KHKS - TAF KHKS 312335Z 0100/0124 04004KT P6SM FEW050 FEW250

KHKS - FM011130 02004KT 6SM BR FEW050 FEW250

KHKS - FM011300 02006KT P6SM FEW050 FEW250

KHKS - FM012100 36009G17KT P6SM SCT050 SCT250 =

GlobalAir.com is loading additional information.
 Current Weather at JAN
92.0 F° (33.3 C°)

Northeast winds at 9.2 mph
Pressure:
29.85 in
Humidity:
47%
Wind:
Northeast at 9.2 mph
Dew Point:
69.1 F° (20.6 C°)
Visibility:
10.00 mi
JAN NOAA Radar




Find All Airport Services Find A Hotel Find A Rental Car Find A Golf Course Find A Restaurant $100 Hamburger



Airport Weather Forecast for KJAN

Translated METAR for KJAN (0054 UTC)
METAR:
KJAN 010054Z Jackson-Medgar Wiley Evers Int, Jackson, MS (KJAN). Sep 1, 0054Z. Wind is Calm, 10 statute miles visibility, Clear Skies, Temperature 27°C, Dewpoint 23°C, Altimeter is 29.86. Remarks: automated station with precipitation discriminator sea level pressure 1010.7 hectopascals hourly temp 27.2°C dewpoint 22.8°C
Conditions at:
KJAN (Jackson-Medgar Wiley Evers Intl, MS) observed 0054 UTC 31 August 2016
Temperature:
92.0 F° (33.3 C°)
Dewpoint:
not reported - refer to area weather report
Pressure:
29.85 Hg
Winds:
not reported
Visibility:
10.00
Ceiling:
at least 12,000 feet AGL
Clouds:
not reported - refer to area weather report
Remarks:

Translated TAF for TAF for JAN is not available. Refer to local area forecast.
FBO's on the Field
FBO Company Facility Photos Services Transportation Aviation Fuel Prices: Prices include tax
Catering Weather Repair Courtesy Rental Type 100LL JetA JetA+ MOGAS 8087
 
Atlantic Aviation - JAN

Currently rated 5 by 1 person
FS:Independent
Last Updated: Aug-23
Login to update fuel prices
SS:
Contact Atlantic Aviation - JANMore FBO Information
 
Add another FBO Facility Photos Catering Weather Repair Courtesy Rental Type 100LL JetA JetA+ MOGAS 8087
Services Transportation Aviation Fuel Prices: Prices include tax


model-print
model-print
model-print
model-print